Terminal Aerodrome Forecast
Issued by NWS

Home | Current Version | Previous Version | Text Only | Print | Product List | Glossary Off
Versions: 1 2 3 4 5 6 7 8 9 10 11 12 13 14 15

000
FTUS43 KABR 120500
TAFPIR
TAF
KPIR 120526Z 1206/1306 30009KT P6SM OVC080
     FM121500 28007KT P6SM SKC
     FM121900 18008KT P6SM SKC=

USA.gov is the U.S. government's official web portal to all federal, state and local government web resources and services.